sensor_id;sensor_type;location;lat;lon;timestamp;P1;durP1;ratioP1;P2;durP2;ratioP2
32906;SDS011;19259;51.590;5.320;2022-11-04T00:02:13;3.22;;;0.70;;
32906;SDS011;19259;51.590;5.320;2022-11-04T00:04:40;1.67;;;0.70;;
32906;SDS011;19259;51.590;5.320;2022-11-04T00:07:07;3.65;;;1.12;;
32906;SDS011;19259;51.590;5.320;2022-11-04T00:09:37;5.10;;;0.98;;
32906;SDS011;19259;51.590;5.320;2022-11-04T00:12:04;2.72;;;0.80;;
32906;SDS011;19259;51.590;5.320;2022-11-04T00:14:50;3.27;;;1.35;;
32906;SDS011;19259;51.590;5.320;2022-11-04T00:17:18;3.17;;;1.20;;
32906;SDS011;19259;51.590;5.320;2022-11-04T00:19:48;5.45;;;1.60;;
32906;SDS011;19259;51.590;5.320;2022-11-04T00:22:35;5.67;;;2.70;;
32906;SDS011;19259;51.590;5.320;2022-11-04T00:25:21;7.65;;;3.25;;
32906;SDS011;19259;51.590;5.320;2022-11-04T00:28:11;17.05;;;9.58;;
32906;SDS011;19259;51.590;5.320;2022-11-04T00:33:48;33.13;;;15.95;;
32906;SDS011;19259;51.590;5.320;2022-11-04T00:36:17;30.17;;;16.17;;
32906;SDS011;19259;51.590;5.320;2022-11-04T00:38:45;32.05;;;16.25;;
32906;SDS011;19259;51.590;5.320;2022-11-04T00:41:15;35.17;;;16.55;;
32906;SDS011;19259;51.590;5.320;2022-11-04T00:43:52;32.20;;;15.63;;
32906;SDS011;19259;51.590;5.320;2022-11-04T00:46:21;30.43;;;15.60;;
32906;SDS011;19259;51.590;5.320;2022-11-04T00:48:49;28.52;;;14.33;;
32906;SDS011;19259;51.590;5.320;2022-11-04T00:51:16;30.43;;;16.02;;
32906;SDS011;19259;51.590;5.320;2022-11-04T00:53:45;30.57;;;15.80;;
32906;SDS011;19259;51.590;5.320;2022-11-04T00:56:13;31.07;;;15.38;;
32906;SDS011;19259;51.590;5.320;2022-11-04T00:58:43;31.17;;;15.88;;
32906;SDS011;19259;51.590;5.320;2022-11-04T01:01:11;34.10;;;16.82;;
32906;SDS011;19259;51.590;5.320;2022-11-04T01:03:44;30.87;;;17.73;;
32906;SDS011;19259;51.590;5.320;2022-11-04T01:06:16;34.63;;;18.02;;
32906;SDS011;19259;51.590;5.320;2022-11-04T01:08:44;35.23;;;18.07;;
32906;SDS011;19259;51.590;5.320;2022-11-04T01:11:13;29.77;;;16.00;;
32906;SDS011;19259;51.590;5.320;2022-11-04T01:13:41;32.58;;;16.05;;
32906;SDS011;19259;51.590;5.320;2022-11-04T01:16:09;31.15;;;15.63;;
32906;SDS011;19259;51.590;5.320;2022-11-04T01:18:38;28.05;;;15.15;;
32906;SDS011;19259;51.590;5.320;2022-11-04T01:21:06;28.90;;;14.73;;
32906;SDS011;19259;51.590;5.320;2022-11-04T01:23:37;31.37;;;14.75;;
32906;SDS011;19259;51.590;5.320;2022-11-04T01:26:06;27.98;;;15.88;;
32906;SDS011;19259;51.590;5.320;2022-11-04T01:28:36;29.70;;;15.43;;
32906;SDS011;19259;51.590;5.320;2022-11-04T01:31:12;28.87;;;14.87;;
32906;SDS011;19259;51.590;5.320;2022-11-04T01:36:05;27.22;;;14.03;;
32906;SDS011;19259;51.590;5.320;2022-11-04T01:38:33;35.05;;;14.58;;
32906;SDS011;19259;51.590;5.320;2022-11-04T01:41:01;26.35;;;14.70;;
32906;SDS011;19259;51.590;5.320;2022-11-04T01:43:43;28.15;;;12.93;;
32906;SDS011;19259;51.590;5.320;2022-11-04T01:46:25;23.65;;;13.03;;
32906;SDS011;19259;51.590;5.320;2022-11-04T01:49:17;28.42;;;14.30;;
32906;SDS011;19259;51.590;5.320;2022-11-04T01:52:00;30.55;;;15.48;;
32906;SDS011;19259;51.590;5.320;2022-11-04T01:54:25;28.73;;;13.75;;
32906;SDS011;19259;51.590;5.320;2022-11-04T01:56:53;25.57;;;12.78;;
32906;SDS011;19259;51.590;5.320;2022-11-04T01:59:26;27.65;;;13.65;;
32906;SDS011;19259;51.590;5.320;2022-11-04T02:01:56;25.80;;;13.35;;
32906;SDS011;19259;51.590;5.320;2022-11-04T02:04:23;27.55;;;12.98;;
32906;SDS011;19259;51.590;5.320;2022-11-04T02:06:52;24.45;;;12.47;;
32906;SDS011;19259;51.590;5.320;2022-11-04T02:09:22;29.23;;;12.93;;
32906;SDS011;19259;51.590;5.320;2022-11-04T02:11:51;27.48;;;11.35;;
32906;SDS011;19259;51.590;5.320;2022-11-04T02:14:36;28.20;;;10.58;;
32906;SDS011;19259;51.590;5.320;2022-11-04T02:31:02;15.72;;;6.47;;
32906;SDS011;19259;51.590;5.320;2022-11-04T02:33:30;18.62;;;7.55;;
32906;SDS011;19259;51.590;5.320;2022-11-04T02:36:02;15.72;;;6.53;;
32906;SDS011;19259;51.590;5.320;2022-11-04T02:38:36;17.35;;;6.55;;
32906;SDS011;19259;51.590;5.320;2022-11-04T02:44:15;17.45;;;5.55;;
32906;SDS011;19259;51.590;5.320;2022-11-04T02:46:50;21.20;;;6.20;;
32906;SDS011;19259;51.590;5.320;2022-11-04T02:49:31;17.10;;;6.05;;
32906;SDS011;19259;51.590;5.320;2022-11-04T02:52:04;16.30;;;5.72;;
32906;SDS011;19259;51.590;5.320;2022-11-04T02:54:44;16.02;;;5.10;;
32906;SDS011;19259;51.590;5.320;2022-11-04T02:57:19;21.20;;;5.97;;
32906;SDS011;19259;51.590;5.320;2022-11-04T02:59:51;15.32;;;5.58;;
32906;SDS011;19259;51.590;5.320;2022-11-04T03:02:29;15.58;;;5.22;;
32906;SDS011;19259;51.590;5.320;2022-11-04T03:04:56;15.80;;;5.42;;
32906;SDS011;19259;51.590;5.320;2022-11-04T03:07:26;13.20;;;5.75;;
32906;SDS011;19259;51.590;5.320;2022-11-04T03:10:04;15.32;;;5.80;;
32906;SDS011;19259;51.590;5.320;2022-11-04T03:12:35;14.98;;;6.17;;
32906;SDS011;19259;51.590;5.320;2022-11-04T03:15:04;15.53;;;5.15;;
32906;SDS011;19259;51.590;5.320;2022-11-04T03:17:45;13.62;;;5.10;;
32906;SDS011;19259;51.590;5.320;2022-11-04T03:20:08;7.90;;;4.22;;
32906;SDS011;19259;51.590;5.320;2022-11-04T03:22:37;17.80;;;4.87;;
32906;SDS011;19259;51.590;5.320;2022-11-04T03:25:05;10.82;;;4.78;;
32906;SDS011;19259;51.590;5.320;2022-11-04T03:30:11;15.18;;;5.80;;
32906;SDS011;19259;51.590;5.320;2022-11-04T03:32:57;16.57;;;5.50;;
32906;SDS011;19259;51.590;5.320;2022-11-04T03:35:50;10.28;;;5.12;;
32906;SDS011;19259;51.590;5.320;2022-11-04T03:38:13;12.55;;;5.78;;
32906;SDS011;19259;51.590;5.320;2022-11-04T03:40:41;14.60;;;5.35;;
32906;SDS011;19259;51.590;5.320;2022-11-04T03:43:17;16.17;;;5.33;;
32906;SDS011;19259;51.590;5.320;2022-11-04T03:45:46;12.63;;;5.37;;
32906;SDS011;19259;51.590;5.320;2022-11-04T03:48:14;14.43;;;4.58;;
32906;SDS011;19259;51.590;5.320;2022-11-04T03:50:43;13.43;;;5.37;;
32906;SDS011;19259;51.590;5.320;2022-11-04T03:53:15;11.93;;;4.85;;
32906;SDS011;19259;51.590;5.320;2022-11-04T04:01:02;9.10;;;4.17;;
32906;SDS011;19259;51.590;5.320;2022-11-04T04:03:56;14.10;;;4.62;;
32906;SDS011;19259;51.590;5.320;2022-11-04T04:06:23;10.45;;;4.45;;
32906;SDS011;19259;51.590;5.320;2022-11-04T04:08:55;15.58;;;5.08;;
32906;SDS011;19259;51.590;5.320;2022-11-04T04:11:41;11.43;;;4.40;;
32906;SDS011;19259;51.590;5.320;2022-11-04T04:14:17;10.63;;;4.30;;
32906;SDS011;19259;51.590;5.320;2022-11-04T04:17:20;13.95;;;4.03;;
32906;SDS011;19259;51.590;5.320;2022-11-04T04:20:02;7.78;;;4.22;;
32906;SDS011;19259;51.590;5.320;2022-11-04T04:22:41;12.47;;;4.30;;
32906;SDS011;19259;51.590;5.320;2022-11-04T04:25:11;13.22;;;4.45;;
32906;SDS011;19259;51.590;5.320;2022-11-04T04:27:59;8.00;;;3.83;;
32906;SDS011;19259;51.590;5.320;2022-11-04T04:30:29;14.38;;;3.50;;
32906;SDS011;19259;51.590;5.320;2022-11-04T04:32:58;10.82;;;3.62;;
32906;SDS011;19259;51.590;5.320;2022-11-04T04:35:32;26.65;;;4.92;;
32906;SDS011;19259;51.590;5.320;2022-11-04T04:38:20;12.20;;;3.37;;
32906;SDS011;19259;51.590;5.320;2022-11-04T04:41:15;16.07;;;3.95;;
32906;SDS011;19259;51.590;5.320;2022-11-04T04:47:08;13.95;;;3.33;;
32906;SDS011;19259;51.590;5.320;2022-11-04T04:49:48;6.75;;;3.45;;
32906;SDS011;19259;51.590;5.320;2022-11-04T04:52:16;13.38;;;3.40;;
32906;SDS011;19259;51.590;5.320;2022-11-04T04:54:44;12.65;;;3.62;;
32906;SDS011;19259;51.590;5.320;2022-11-04T04:57:12;10.20;;;3.22;;
32906;SDS011;19259;51.590;5.320;2022-11-04T04:59:39;13.72;;;3.25;;
32906;SDS011;19259;51.590;5.320;2022-11-04T05:02:07;9.00;;;3.45;;
32906;SDS011;19259;51.590;5.320;2022-11-04T05:04:34;9.73;;;2.98;;
32906;SDS011;19259;51.590;5.320;2022-11-04T05:07:02;7.12;;;2.92;;
32906;SDS011;19259;51.590;5.320;2022-11-04T05:09:31;10.05;;;3.67;;
32906;SDS011;19259;51.590;5.320;2022-11-04T05:11:59;11.22;;;3.27;;
32906;SDS011;19259;51.590;5.320;2022-11-04T05:14:27;11.93;;;3.83;;
32906;SDS011;19259;51.590;5.320;2022-11-04T05:16:55;14.47;;;3.40;;
32906;SDS011;19259;51.590;5.320;2022-11-04T05:19:22;11.60;;;3.85;;
32906;SDS011;19259;51.590;5.320;2022-11-04T05:21:50;7.87;;;4.08;;
32906;SDS011;19259;51.590;5.320;2022-11-04T05:24:17;8.23;;;4.55;;
32906;SDS011;19259;51.590;5.320;2022-11-04T05:26:45;9.53;;;3.52;;
32906;SDS011;19259;51.590;5.320;2022-11-04T05:29:13;11.22;;;3.67;;
32906;SDS011;19259;51.590;5.320;2022-11-04T05:31:40;9.53;;;3.80;;
32906;SDS011;19259;51.590;5.320;2022-11-04T05:34:11;9.55;;;3.52;;
32906;SDS011;19259;51.590;5.320;2022-11-04T05:36:39;9.50;;;3.65;;
32906;SDS011;19259;51.590;5.320;2022-11-04T05:39:07;10.40;;;3.37;;
32906;SDS011;19259;51.590;5.320;2022-11-04T05:41:37;15.90;;;4.15;;
32906;SDS011;19259;51.590;5.320;2022-11-04T05:44:05;21.80;;;4.08;;
32906;SDS011;19259;51.590;5.320;2022-11-04T05:46:34;13.78;;;4.12;;
32906;SDS011;19259;51.590;5.320;2022-11-04T05:49:01;15.53;;;3.95;;
32906;SDS011;19259;51.590;5.320;2022-11-04T05:51:32;10.60;;;3.62;;
32906;SDS011;19259;51.590;5.320;2022-11-04T05:54:00;14.05;;;3.55;;
32906;SDS011;19259;51.590;5.320;2022-11-04T05:56:28;12.35;;;3.72;;
32906;SDS011;19259;51.590;5.320;2022-11-04T05:58:55;15.60;;;4.15;;
32906;SDS011;19259;51.590;5.320;2022-11-04T06:01:36;14.40;;;3.42;;
32906;SDS011;19259;51.590;5.320;2022-11-04T06:04:06;10.98;;;3.50;;
32906;SDS011;19259;51.590;5.320;2022-11-04T06:06:35;10.28;;;3.95;;
32906;SDS011;19259;51.590;5.320;2022-11-04T06:09:06;13.32;;;3.95;;
32906;SDS011;19259;51.590;5.320;2022-11-04T06:11:34;11.43;;;3.90;;
32906;SDS011;19259;51.590;5.320;2022-11-04T06:14:02;11.30;;;4.28;;
32906;SDS011;19259;51.590;5.320;2022-11-04T06:16:31;18.87;;;5.33;;
32906;SDS011;19259;51.590;5.320;2022-11-04T06:18:58;11.90;;;3.50;;
32906;SDS011;19259;51.590;5.320;2022-11-04T06:21:27;14.15;;;3.62;;
32906;SDS011;19259;51.590;5.320;2022-11-04T06:23:56;7.42;;;3.37;;
32906;SDS011;19259;51.590;5.320;2022-11-04T06:26:25;17.50;;;4.00;;
32906;SDS011;19259;51.590;5.320;2022-11-04T06:28:55;9.08;;;3.72;;
32906;SDS011;19259;51.590;5.320;2022-11-04T06:31:23;10.68;;;4.05;;
32906;SDS011;19259;51.590;5.320;2022-11-04T06:33:51;13.40;;;4.35;;
32906;SDS011;19259;51.590;5.320;2022-11-04T06:36:18;16.60;;;4.80;;
32906;SDS011;19259;51.590;5.320;2022-11-04T06:38:46;19.95;;;5.30;;
32906;SDS011;19259;51.590;5.320;2022-11-04T06:41:15;23.32;;;6.90;;
32906;SDS011;19259;51.590;5.320;2022-11-04T06:43:43;16.70;;;5.55;;
32906;SDS011;19259;51.590;5.320;2022-11-04T06:49:04;9.98;;;5.17;;
32906;SDS011;19259;51.590;5.320;2022-11-04T06:51:33;14.90;;;5.67;;
32906;SDS011;19259;51.590;5.320;2022-11-04T06:54:00;15.50;;;5.37;;
32906;SDS011;19259;51.590;5.320;2022-11-04T06:56:28;18.50;;;6.17;;
32906;SDS011;19259;51.590;5.320;2022-11-04T06:58:56;15.70;;;5.35;;
32906;SDS011;19259;51.590;5.320;2022-11-04T07:01:26;15.13;;;5.50;;
32906;SDS011;19259;51.590;5.320;2022-11-04T07:03:55;17.05;;;6.20;;
32906;SDS011;19259;51.590;5.320;2022-11-04T07:06:26;16.90;;;6.03;;
32906;SDS011;19259;51.590;5.320;2022-11-04T07:08:59;17.45;;;7.65;;
32906;SDS011;19259;51.590;5.320;2022-11-04T07:11:28;18.42;;;7.15;;
32906;SDS011;19259;51.590;5.320;2022-11-04T07:13:58;14.70;;;6.65;;
32906;SDS011;19259;51.590;5.320;2022-11-04T07:16:25;16.23;;;7.03;;
32906;SDS011;19259;51.590;5.320;2022-11-04T07:18:54;12.90;;;6.67;;
32906;SDS011;19259;51.590;5.320;2022-11-04T07:21:22;22.40;;;7.45;;
32906;SDS011;19259;51.590;5.320;2022-11-04T07:23:50;25.48;;;9.90;;
32906;SDS011;19259;51.590;5.320;2022-11-04T07:26:17;28.60;;;10.88;;
32906;SDS011;19259;51.590;5.320;2022-11-04T07:28:45;20.72;;;9.40;;
32906;SDS011;19259;51.590;5.320;2022-11-04T07:31:12;22.85;;;8.93;;
32906;SDS011;19259;51.590;5.320;2022-11-04T07:33:40;17.82;;;8.65;;
32906;SDS011;19259;51.590;5.320;2022-11-04T07:36:10;18.85;;;7.72;;
32906;SDS011;19259;51.590;5.320;2022-11-04T07:38:38;24.98;;;9.03;;
32906;SDS011;19259;51.590;5.320;2022-11-04T07:41:05;21.95;;;8.40;;
32906;SDS011;19259;51.590;5.320;2022-11-04T07:43:33;23.35;;;7.90;;
32906;SDS011;19259;51.590;5.320;2022-11-04T07:46:05;22.00;;;8.28;;
32906;SDS011;19259;51.590;5.320;2022-11-04T07:48:35;24.23;;;10.40;;
32906;SDS011;19259;51.590;5.320;2022-11-04T07:51:03;24.80;;;9.85;;
32906;SDS011;19259;51.590;5.320;2022-11-04T07:53:32;21.27;;;9.33;;
32906;SDS011;19259;51.590;5.320;2022-11-04T07:56:07;25.05;;;9.53;;
32906;SDS011;19259;51.590;5.320;2022-11-04T07:58:37;26.68;;;9.20;;
32906;SDS011;19259;51.590;5.320;2022-11-04T08:01:06;27.17;;;9.63;;
32906;SDS011;19259;51.590;5.320;2022-11-04T08:03:35;28.20;;;9.98;;
32906;SDS011;19259;51.590;5.320;2022-11-04T08:06:03;23.40;;;8.73;;
32906;SDS011;19259;51.590;5.320;2022-11-04T08:08:33;18.80;;;8.88;;
32906;SDS011;19259;51.590;5.320;2022-11-04T08:11:02;20.48;;;8.05;;
32906;SDS011;19259;51.590;5.320;2022-11-04T08:13:33;25.75;;;8.30;;
32906;SDS011;19259;51.590;5.320;2022-11-04T08:16:06;15.70;;;7.70;;
32906;SDS011;19259;51.590;5.320;2022-11-04T08:18:35;25.80;;;9.13;;
32906;SDS011;19259;51.590;5.320;2022-11-04T08:21:03;17.60;;;8.25;;
32906;SDS011;19259;51.590;5.320;2022-11-04T08:23:32;18.98;;;8.00;;
32906;SDS011;19259;51.590;5.320;2022-11-04T08:25:59;19.45;;;8.33;;
32906;SDS011;19259;51.590;5.320;2022-11-04T08:28:27;17.80;;;8.10;;
32906;SDS011;19259;51.590;5.320;2022-11-04T08:30:56;19.52;;;7.08;;
32906;SDS011;19259;51.590;5.320;2022-11-04T08:33:27;20.48;;;10.13;;
32906;SDS011;19259;51.590;5.320;2022-11-04T08:36:04;18.20;;;8.55;;
32906;SDS011;19259;51.590;5.320;2022-11-04T08:38:35;16.45;;;8.30;;
32906;SDS011;19259;51.590;5.320;2022-11-04T08:41:03;18.35;;;8.05;;
32906;SDS011;19259;51.590;5.320;2022-11-04T08:43:33;21.20;;;7.40;;
32906;SDS011;19259;51.590;5.320;2022-11-04T08:46:02;20.52;;;7.90;;
32906;SDS011;19259;51.590;5.320;2022-11-04T08:48:32;21.93;;;7.85;;
32906;SDS011;19259;51.590;5.320;2022-11-04T08:51:01;28.10;;;8.33;;
32906;SDS011;19259;51.590;5.320;2022-11-04T08:53:30;17.45;;;7.45;;
32906;SDS011;19259;51.590;5.320;2022-11-04T08:55:57;13.85;;;6.40;;
32906;SDS011;19259;51.590;5.320;2022-11-04T08:58:25;20.62;;;6.75;;
32906;SDS011;19259;51.590;5.320;2022-11-04T09:00:53;17.23;;;6.33;;
32906;SDS011;19259;51.590;5.320;2022-11-04T09:03:22;16.97;;;6.95;;
32906;SDS011;19259;51.590;5.320;2022-11-04T09:05:50;20.82;;;6.97;;
32906;SDS011;19259;51.590;5.320;2022-11-04T09:08:17;13.83;;;5.78;;
32906;SDS011;19259;51.590;5.320;2022-11-04T09:10:46;15.65;;;6.08;;
32906;SDS011;19259;51.590;5.320;2022-11-04T09:13:15;18.40;;;7.05;;
32906;SDS011;19259;51.590;5.320;2022-11-04T09:15:43;19.92;;;7.60;;
32906;SDS011;19259;51.590;5.320;2022-11-04T09:18:12;21.57;;;6.83;;
32906;SDS011;19259;51.590;5.320;2022-11-04T09:20:40;17.30;;;6.85;;
32906;SDS011;19259;51.590;5.320;2022-11-04T09:23:08;22.70;;;6.70;;
32906;SDS011;19259;51.590;5.320;2022-11-04T09:25:35;14.85;;;6.55;;
32906;SDS011;19259;51.590;5.320;2022-11-04T09:28:03;15.60;;;6.70;;
32906;SDS011;19259;51.590;5.320;2022-11-04T09:30:32;17.02;;;6.75;;
32906;SDS011;19259;51.590;5.320;2022-11-04T09:33:00;16.25;;;8.63;;
32906;SDS011;19259;51.590;5.320;2022-11-04T09:35:28;16.32;;;8.25;;
32906;SDS011;19259;51.590;5.320;2022-11-04T09:37:57;19.05;;;8.15;;
32906;SDS011;19259;51.590;5.320;2022-11-04T09:40:26;17.40;;;6.55;;
32906;SDS011;19259;51.590;5.320;2022-11-04T09:45:38;25.48;;;8.23;;
32906;SDS011;19259;51.590;5.320;2022-11-04T09:48:06;13.58;;;7.28;;
32906;SDS011;19259;51.590;5.320;2022-11-04T09:50:40;21.97;;;8.30;;
32906;SDS011;19259;51.590;5.320;2022-11-04T09:53:20;14.55;;;7.00;;
32906;SDS011;19259;51.590;5.320;2022-11-04T09:58:19;19.30;;;8.53;;
32906;SDS011;19259;51.590;5.320;2022-11-04T10:03:40;22.80;;;6.30;;
32906;SDS011;19259;51.590;5.320;2022-11-04T10:06:18;17.10;;;8.08;;
32906;SDS011;19259;51.590;5.320;2022-11-04T10:08:49;26.57;;;6.25;;
32906;SDS011;19259;51.590;5.320;2022-11-04T10:11:26;15.05;;;6.15;;
32906;SDS011;19259;51.590;5.320;2022-11-04T10:19:36;24.25;;;7.20;;
32906;SDS011;19259;51.590;5.320;2022-11-04T10:22:10;16.77;;;6.15;;
32906;SDS011;19259;51.590;5.320;2022-11-04T10:27:37;12.25;;;5.33;;
32906;SDS011;19259;51.590;5.320;2022-11-04T10:30:15;16.90;;;6.58;;
32906;SDS011;19259;51.590;5.320;2022-11-04T10:40:47;15.23;;;7.75;;
32906;SDS011;19259;51.590;5.320;2022-11-04T10:43:36;18.32;;;8.38;;
32906;SDS011;19259;51.590;5.320;2022-11-04T10:48:41;14.78;;;8.10;;
32906;SDS011;19259;51.590;5.320;2022-11-04T10:51:21;21.00;;;8.45;;
32906;SDS011;19259;51.590;5.320;2022-11-04T10:53:51;17.20;;;8.93;;
32906;SDS011;19259;51.590;5.320;2022-11-04T10:59:24;26.95;;;12.33;;
32906;SDS011;19259;51.590;5.320;2022-11-04T11:01:55;21.52;;;11.80;;
32906;SDS011;19259;51.590;5.320;2022-11-04T11:04:34;22.45;;;10.80;;
32906;SDS011;19259;51.590;5.320;2022-11-04T11:07:06;24.45;;;10.90;;
32906;SDS011;19259;51.590;5.320;2022-11-04T11:09:35;22.58;;;11.83;;
32906;SDS011;19259;51.590;5.320;2022-11-04T11:14:42;19.42;;;11.12;;
32906;SDS011;19259;51.590;5.320;2022-11-04T11:22:26;21.10;;;9.98;;
32906;SDS011;19259;51.590;5.320;2022-11-04T11:30:25;18.67;;;9.38;;
32906;SDS011;19259;51.590;5.320;2022-11-04T11:33:16;24.05;;;9.68;;
32906;SDS011;19259;51.590;5.320;2022-11-04T11:41:34;16.80;;;8.53;;
32906;SDS011;19259;51.590;5.320;2022-11-04T11:44:16;20.68;;;9.38;;
32906;SDS011;19259;51.590;5.320;2022-11-04T11:46:34;17.52;;;8.53;;
32906;SDS011;19259;51.590;5.320;2022-11-04T11:49:03;15.98;;;8.00;;
32906;SDS011;19259;51.590;5.320;2022-11-04T11:51:36;24.85;;;8.70;;
32906;SDS011;19259;51.590;5.320;2022-11-04T11:56:56;19.15;;;8.88;;
32906;SDS011;19259;51.590;5.320;2022-11-04T11:59:41;18.80;;;8.53;;
32906;SDS011;19259;51.590;5.320;2022-11-04T12:04:50;18.40;;;9.45;;
32906;SDS011;19259;51.590;5.320;2022-11-04T12:07:22;18.23;;;9.10;;
32906;SDS011;19259;51.590;5.320;2022-11-04T12:15:36;21.30;;;9.68;;
32906;SDS011;19259;51.590;5.320;2022-11-04T12:18:34;19.95;;;10.43;;
32906;SDS011;19259;51.590;5.320;2022-11-04T12:23:56;20.27;;;10.32;;
32906;SDS011;19259;51.590;5.320;2022-11-04T12:37:33;20.80;;;9.03;;
32906;SDS011;19259;51.590;5.320;2022-11-04T12:40:09;13.65;;;8.00;;
32906;SDS011;19259;51.590;5.320;2022-11-04T12:45:41;19.50;;;10.25;;
32906;SDS011;19259;51.590;5.320;2022-11-04T12:54:24;15.50;;;8.55;;
32906;SDS011;19259;51.590;5.320;2022-11-04T12:57:05;19.75;;;10.03;;
32906;SDS011;19259;51.590;5.320;2022-11-04T13:02:31;16.87;;;9.10;;
32906;SDS011;19259;51.590;5.320;2022-11-04T13:05:17;16.75;;;9.20;;
32906;SDS011;19259;51.590;5.320;2022-11-04T13:08:02;19.25;;;10.13;;
32906;SDS011;19259;51.590;5.320;2022-11-04T13:13:07;21.15;;;10.63;;
32906;SDS011;19259;51.590;5.320;2022-11-04T13:15:45;26.50;;;11.33;;
32906;SDS011;19259;51.590;5.320;2022-11-04T13:18:22;23.50;;;11.38;;
32906;SDS011;19259;51.590;5.320;2022-11-04T13:20:55;24.65;;;11.75;;
32906;SDS011;19259;51.590;5.320;2022-11-04T13:23:31;26.23;;;10.40;;
32906;SDS011;19259;51.590;5.320;2022-11-04T13:25:56;24.05;;;12.20;;
32906;SDS011;19259;51.590;5.320;2022-11-04T13:28:27;18.67;;;10.90;;
32906;SDS011;19259;51.590;5.320;2022-11-04T13:33:34;19.62;;;10.10;;
32906;SDS011;19259;51.590;5.320;2022-11-04T13:36:21;21.75;;;8.80;;
32906;SDS011;19259;51.590;5.320;2022-11-04T13:38:58;16.02;;;9.05;;
32906;SDS011;19259;51.590;5.320;2022-11-04T13:44:16;16.97;;;9.18;;
32906;SDS011;19259;51.590;5.320;2022-11-04T13:46:53;16.97;;;8.68;;
32906;SDS011;19259;51.590;5.320;2022-11-04T13:49:24;14.95;;;8.10;;
32906;SDS011;19259;51.590;5.320;2022-11-04T13:52:11;14.43;;;8.08;;
32906;SDS011;19259;51.590;5.320;2022-11-04T13:54:40;12.80;;;7.03;;
32906;SDS011;19259;51.590;5.320;2022-11-04T13:57:22;12.23;;;6.60;;
32906;SDS011;19259;51.590;5.320;2022-11-04T14:02:36;14.15;;;6.62;;
32906;SDS011;19259;51.590;5.320;2022-11-04T14:10:57;16.05;;;8.45;;
32906;SDS011;19259;51.590;5.320;2022-11-04T14:18:42;14.45;;;7.75;;
32906;SDS011;19259;51.590;5.320;2022-11-04T14:21:15;16.50;;;7.53;;
32906;SDS011;19259;51.590;5.320;2022-11-04T14:23:51;15.80;;;6.70;;
32906;SDS011;19259;51.590;5.320;2022-11-04T14:26:23;13.93;;;7.90;;
32906;SDS011;19259;51.590;5.320;2022-11-04T14:29:05;16.10;;;7.12;;
32906;SDS011;19259;51.590;5.320;2022-11-04T14:31:35;13.00;;;6.62;;
32906;SDS011;19259;51.590;5.320;2022-11-04T14:34:05;11.40;;;6.45;;
32906;SDS011;19259;51.590;5.320;2022-11-04T14:36:40;15.28;;;5.90;;
32906;SDS011;19259;51.590;5.320;2022-11-04T14:41:49;17.12;;;6.40;;
32906;SDS011;19259;51.590;5.320;2022-11-04T14:44:25;15.43;;;5.60;;
32906;SDS011;19259;51.590;5.320;2022-11-04T14:47:21;6.62;;;3.77;;
32906;SDS011;19259;51.590;5.320;2022-11-04T14:52:33;5.28;;;1.40;;
32906;SDS011;19259;51.590;5.320;2022-11-04T14:55:07;8.28;;;1.62;;
32906;SDS011;19259;51.590;5.320;2022-11-04T14:57:46;2.83;;;1.10;;
32906;SDS011;19259;51.590;5.320;2022-11-04T15:00:17;5.30;;;1.40;;
32906;SDS011;19259;51.590;5.320;2022-11-04T15:02:47;2.30;;;1.00;;
32906;SDS011;19259;51.590;5.320;2022-11-04T15:05:22;5.00;;;1.15;;
32906;SDS011;19259;51.590;5.320;2022-11-04T15:07:53;6.33;;;1.30;;
32906;SDS011;19259;51.590;5.320;2022-11-04T15:10:21;2.12;;;1.02;;
32906;SDS011;19259;51.590;5.320;2022-11-04T15:12:52;4.85;;;1.35;;
32906;SDS011;19259;51.590;5.320;2022-11-04T15:15:38;2.45;;;1.32;;
32906;SDS011;19259;51.590;5.320;2022-11-04T15:18:13;3.25;;;1.25;;
32906;SDS011;19259;51.590;5.320;2022-11-04T15:20:46;3.85;;;1.45;;
32906;SDS011;19259;51.590;5.320;2022-11-04T15:23:25;3.95;;;1.45;;
32906;SDS011;19259;51.590;5.320;2022-11-04T15:25:57;3.90;;;1.10;;
32906;SDS011;19259;51.590;5.320;2022-11-04T15:28:27;5.67;;;1.52;;
32906;SDS011;19259;51.590;5.320;2022-11-04T15:31:04;2.45;;;1.00;;
32906;SDS011;19259;51.590;5.320;2022-11-04T15:33:29;7.15;;;1.50;;
32906;SDS011;19259;51.590;5.320;2022-11-04T15:35:59;3.20;;;1.15;;
32906;SDS011;19259;51.590;5.320;2022-11-04T15:38:28;4.17;;;1.45;;
32906;SDS011;19259;51.590;5.320;2022-11-04T15:40:56;6.75;;;1.10;;
32906;SDS011;19259;51.590;5.320;2022-11-04T15:43:28;5.87;;;1.32;;
32906;SDS011;19259;51.590;5.320;2022-11-04T15:45:55;4.92;;;1.32;;
32906;SDS011;19259;51.590;5.320;2022-11-04T15:48:30;7.62;;;1.50;;
32906;SDS011;19259;51.590;5.320;2022-11-04T15:51:08;5.10;;;1.47;;
32906;SDS011;19259;51.590;5.320;2022-11-04T15:53:47;5.00;;;1.75;;
32906;SDS011;19259;51.590;5.320;2022-11-04T15:56:26;8.03;;;1.55;;
32906;SDS011;19259;51.590;5.320;2022-11-04T15:58:56;7.60;;;1.60;;
32906;SDS011;19259;51.590;5.320;2022-11-04T16:01:32;3.40;;;1.05;;
32906;SDS011;19259;51.590;5.320;2022-11-04T16:03:57;4.60;;;1.35;;
32906;SDS011;19259;51.590;5.320;2022-11-04T16:06:31;4.35;;;1.55;;
32906;SDS011;19259;51.590;5.320;2022-11-04T16:09:24;5.50;;;1.87;;
32906;SDS011;19259;51.590;5.320;2022-11-04T16:11:37;5.20;;;2.67;;
32906;SDS011;19259;51.590;5.320;2022-11-04T16:14:24;8.13;;;2.15;;
32906;SDS011;19259;51.590;5.320;2022-11-04T16:16:53;4.50;;;1.80;;
32906;SDS011;19259;51.590;5.320;2022-11-04T16:19:22;5.65;;;1.62;;
32906;SDS011;19259;51.590;5.320;2022-11-04T16:22:02;5.87;;;1.95;;
32906;SDS011;19259;51.590;5.320;2022-11-04T16:24:32;5.30;;;1.67;;
32906;SDS011;19259;51.590;5.320;2022-11-04T16:27:01;5.03;;;1.60;;
32906;SDS011;19259;51.590;5.320;2022-11-04T16:29:31;2.98;;;1.40;;
32906;SDS011;19259;51.590;5.320;2022-11-04T16:32:17;3.95;;;1.70;;
32906;SDS011;19259;51.590;5.320;2022-11-04T16:34:47;7.25;;;1.67;;
32906;SDS011;19259;51.590;5.320;2022-11-04T16:37:16;4.40;;;1.92;;
32906;SDS011;19259;51.590;5.320;2022-11-04T16:39:44;6.10;;;1.90;;
32906;SDS011;19259;51.590;5.320;2022-11-04T16:42:14;6.97;;;2.12;;
32906;SDS011;19259;51.590;5.320;2022-11-04T16:44:46;7.92;;;1.98;;
32906;SDS011;19259;51.590;5.320;2022-11-04T16:47:15;6.37;;;2.12;;
32906;SDS011;19259;51.590;5.320;2022-11-04T16:49:44;7.35;;;1.77;;
32906;SDS011;19259;51.590;5.320;2022-11-04T16:52:14;7.72;;;1.80;;
32906;SDS011;19259;51.590;5.320;2022-11-04T16:54:48;5.60;;;2.12;;
32906;SDS011;19259;51.590;5.320;2022-11-04T16:57:15;4.10;;;1.72;;
32906;SDS011;19259;51.590;5.320;2022-11-04T16:59:43;4.45;;;1.92;;
32906;SDS011;19259;51.590;5.320;2022-11-04T17:02:27;5.17;;;2.05;;
32906;SDS011;19259;51.590;5.320;2022-11-04T17:04:56;5.78;;;2.17;;
32906;SDS011;19259;51.590;5.320;2022-11-04T17:07:24;7.08;;;1.92;;
32906;SDS011;19259;51.590;5.320;2022-11-04T17:09:51;5.35;;;2.33;;
32906;SDS011;19259;51.590;5.320;2022-11-04T17:12:19;4.60;;;2.30;;
32906;SDS011;19259;51.590;5.320;2022-11-04T17:14:46;9.18;;;3.30;;
32906;SDS011;19259;51.590;5.320;2022-11-04T17:17:14;4.42;;;2.15;;
32906;SDS011;19259;51.590;5.320;2022-11-04T17:19:42;4.47;;;2.05;;
32906;SDS011;19259;51.590;5.320;2022-11-04T17:22:09;6.30;;;2.00;;
32906;SDS011;19259;51.590;5.320;2022-11-04T17:24:37;4.70;;;2.27;;
32906;SDS011;19259;51.590;5.320;2022-11-04T17:27:05;5.78;;;2.52;;
32906;SDS011;19259;51.590;5.320;2022-11-04T17:29:40;9.58;;;2.62;;
32906;SDS011;19259;51.590;5.320;2022-11-04T17:32:02;7.15;;;2.45;;
32906;SDS011;19259;51.590;5.320;2022-11-04T17:34:30;5.78;;;2.50;;